Time;durP1;ratioP1;P1;durP2;ratioP2;P2;SDS_P1;SDS_P2;PMS_P1;PMS_P2;Temp;Humidity;BMP_temperature;BMP_pressure;BME280_temperature;BME280_humidity;BME280_pressure;Samples;Min_cycle;Max_cycle;Signal;HPM_P1;HPM_P2
2022/08/27 00:00:22;;;;;;;5.87;2.87;;;;;;;;;;5091283;28;20863;-78
2022/08/27 00:02:50;;;;;;;8.47;2.70;;;;;;;;;;5096495;28;20197;-78
2022/08/27 00:05:18;;;;;;;5.87;2.57;;;;;;;;;;5094423;28;20225;-78
2022/08/27 00:07:45;;;;;;;4.93;2.47;;;;;;;;;;5107049;28;20236;-78
2022/08/27 00:10:15;;;;;;;7.33;2.70;;;;;;;;;;5092308;28;20299;-78
2022/08/27 00:12:43;;;;;;;5.87;2.43;;;;;;;;;;5109621;28;20614;-78
2022/08/27 00:15:11;;;;;;;7.57;2.80;;;;;;;;;;5093344;28;20217;-78
2022/08/27 00:17:38;;;;;;;7.40;3.03;;;;;;;;;;5102482;28;20237;-78
2022/08/27 00:20:07;;;;;;;8.03;3.37;;;;;;;;;;5096134;28;20253;-78
2022/08/27 00:22:35;;;;;;;7.47;3.20;;;;;;;;;;5100559;28;20207;-78
2022/08/27 00:25:02;;;;;;;6.90;3.63;;;;;;;;;;5111546;28;20225;-78
2022/08/27 00:27:29;;;;;;;7.27;3.40;;;;;;;;;;5093343;28;20216;-78
2022/08/27 00:29:58;;;;;;;8.00;3.17;;;;;;;;;;5091767;28;20222;-78
2022/08/27 00:32:25;;;;;;;7.77;3.20;;;;;;;;;;5095075;28;20198;-78
2022/08/27 00:34:52;;;;;;;6.73;3.40;;;;;;;;;;5095788;28;20224;-78
2022/08/27 00:37:20;;;;;;;7.20;3.33;;;;;;;;;;5097518;28;20286;-78
2022/08/27 00:39:47;;;;;;;6.87;3.40;;;;;;;;;;5111520;28;20250;-78
2022/08/27 00:42:14;;;;;;;6.73;3.10;;;;;;;;;;5087582;28;20198;-78
2022/08/27 00:44:42;;;;;;;11.63;3.50;;;;;;;;;;5095412;28;20242;-78
2022/08/27 00:47:13;;;;;;;6.87;3.33;;;;;;;;;;5115581;28;20281;-78
2022/08/27 00:49:42;;;;;;;9.37;3.50;;;;;;;;;;5111552;28;20290;-78
2022/08/27 00:52:12;;;;;;;7.17;3.77;;;;;;;;;;5098357;28;20234;-78
2022/08/27 00:54:40;;;;;;;7.47;3.70;;;;;;;;;;5114250;28;20291;-78
2022/08/27 00:57:07;;;;;;;6.07;3.30;;;;;;;;;;5095130;28;20199;-78
2022/08/27 00:59:34;;;;;;;9.13;3.70;;;;;;;;;;5108320;28;20230;-78
2022/08/27 01:02:20;;;;;;;6.83;3.60;;;;;;;;;;5104249;28;20284;-78
2022/08/27 01:04:51;;;;;;;7.80;3.60;;;;;;;;;;5112824;28;20849;-78
2022/08/27 01:07:19;;;;;;;7.57;3.60;;;;;;;;;;5114605;28;20243;-78
2022/08/27 01:09:48;;;;;;;7.83;3.40;;;;;;;;;;5109292;28;20243;-78
2022/08/27 01:12:15;;;;;;;6.30;3.17;;;;;;;;;;5114974;28;20202;-78
2022/08/27 01:14:44;;;;;;;8.17;3.37;;;;;;;;;;5109511;28;20229;-78
2022/08/27 01:17:11;;;;;;;9.13;4.13;;;;;;;;;;5094790;28;20237;-78
2022/08/27 01:19:41;;;;;;;6.60;3.67;;;;;;;;;;5100432;28;20260;-78
2022/08/27 01:22:13;;;;;;;7.17;3.67;;;;;;;;;;5094861;28;20674;-78
2022/08/27 01:24:43;;;;;;;9.03;4.17;;;;;;;;;;5098892;28;20231;-78
2022/08/27 01:27:13;;;;;;;6.30;4.00;;;;;;;;;;5116221;28;20225;-78
2022/08/27 01:29:40;;;;;;;7.43;4.23;;;;;;;;;;5109562;28;20191;-78
2022/08/27 01:32:09;;;;;;;9.67;4.73;;;;;;;;;;5107587;28;20206;-78
2022/08/27 01:34:37;;;;;;;10.57;4.63;;;;;;;;;;5112455;28;20218;-78
2022/08/27 01:37:05;;;;;;;8.03;4.30;;;;;;;;;;5121794;28;20545;-78
2022/08/27 01:39:32;;;;;;;9.60;4.77;;;;;;;;;;5100482;28;20214;-78
2022/08/27 01:42:05;;;;;;;11.40;4.70;;;;;;;;;;5093622;28;20317;-78
2022/08/27 01:44:41;;;;;;;6.73;4.20;;;;;;;;;;5094029;28;20256;-78
2022/08/27 01:47:08;;;;;;;8.70;4.27;;;;;;;;;;5094229;28;20285;-78
2022/08/27 01:49:36;;;;;;;7.37;4.20;;;;;;;;;;5093831;28;20741;-78
2022/08/27 01:52:03;;;;;;;8.60;4.60;;;;;;;;;;5093932;28;20225;-78
2022/08/27 01:54:30;;;;;;;11.47;4.87;;;;;;;;;;5099153;28;20241;-78
2022/08/27 01:56:58;;;;;;;9.07;4.97;;;;;;;;;;5095668;28;20280;-78
2022/08/27 01:59:26;;;;;;;8.53;4.80;;;;;;;;;;5097281;28;20311;-78
2022/08/27 02:01:57;;;;;;;7.93;5.00;;;;;;;;;;5077478;28;20615;-78
2022/08/27 02:04:24;;;;;;;8.47;4.93;;;;;;;;;;5093622;28;20230;-78
2022/08/27 02:06:51;;;;;;;10.13;5.20;;;;;;;;;;5093677;28;20285;-78
2022/08/27 02:09:19;;;;;;;9.87;5.03;;;;;;;;;;5104420;28;20293;-78
2022/08/27 02:11:46;;;;;;;10.37;4.90;;;;;;;;;;5108305;28;20282;-78
2022/08/27 02:14:14;;;;;;;10.93;4.57;;;;;;;;;;5112102;28;20259;-78
2022/08/27 02:16:43;;;;;;;9.13;4.87;;;;;;;;;;5093829;28;20202;-78
2022/08/27 02:19:10;;;;;;;9.97;4.70;;;;;;;;;;5093620;28;20218;-78
2022/08/27 02:21:37;;;;;;;10.17;4.70;;;;;;;;;;5093101;28;20198;-78
2022/08/27 02:24:04;;;;;;;9.20;4.53;;;;;;;;;;5092788;28;20244;-78
2022/08/27 02:26:32;;;;;;;11.20;5.20;;;;;;;;;;5093707;28;20229;-79
2022/08/27 02:28:59;;;;;;;8.53;5.47;;;;;;;;;;5097570;28;20255;-78
2022/08/27 02:31:27;;;;;;;8.87;5.10;;;;;;;;;;5112770;28;20677;-78
2022/08/27 02:33:56;;;;;;;9.73;5.57;;;;;;;;;;5114186;28;20263;-78
2022/08/27 02:36:24;;;;;;;7.90;5.33;;;;;;;;;;5113306;28;20244;-78
2022/08/27 02:38:51;;;;;;;11.27;5.83;;;;;;;;;;5098698;28;20193;-78
2022/08/27 02:41:19;;;;;;;7.83;5.43;;;;;;;;;;5113342;28;20269;-78
2022/08/27 02:43:46;;;;;;;9.33;5.30;;;;;;;;;;5113313;28;20990;-78
2022/08/27 02:46:14;;;;;;;10.97;6.00;;;;;;;;;;5101404;28;20226;-78
2022/08/27 02:48:43;;;;;;;13.20;6.40;;;;;;;;;;5092731;28;20234;-78
2022/08/27 02:51:12;;;;;;;12.53;6.10;;;;;;;;;;5092581;28;20198;-78
2022/08/27 02:53:39;;;;;;;12.13;5.97;;;;;;;;;;5099652;28;20291;-78
2022/08/27 02:56:07;;;;;;;12.67;6.60;;;;;;;;;;5092770;28;20238;-78
2022/08/27 02:58:34;;;;;;;11.10;5.67;;;;;;;;;;5093272;28;20752;-78
2022/08/27 03:01:01;;;;;;;11.73;5.63;;;;;;;;;;5092247;28;20250;-78
2022/08/27 03:03:29;;;;;;;10.33;5.77;;;;;;;;;;5092804;28;20234;-78
2022/08/27 03:05:56;;;;;;;11.50;6.03;;;;;;;;;;5092285;28;20285;-78
2022/08/27 03:08:25;;;;;;;9.93;6.70;;;;;;;;;;5095310;28;20872;-78
2022/08/27 03:10:53;;;;;;;15.40;7.40;;;;;;;;;;5092607;28;20226;-78
2022/08/27 03:13:20;;;;;;;14.17;6.73;;;;;;;;;;5092360;28;20233;-78
2022/08/27 03:15:48;;;;;;;11.27;7.10;;;;;;;;;;5079333;28;20190;-78
2022/08/27 03:18:17;;;;;;;11.23;6.97;;;;;;;;;;5094458;28;20715;-78
2022/08/27 03:20:45;;;;;;;12.23;7.03;;;;;;;;;;5106601;28;20226;-78
2022/08/27 03:23:13;;;;;;;11.80;7.37;;;;;;;;;;5102111;28;20217;-78
2022/08/27 03:25:43;;;;;;;15.47;7.97;;;;;;;;;;5106426;28;20886;-78
2022/08/27 03:28:13;;;;;;;14.93;7.43;;;;;;;;;;5094629;28;20226;-78
2022/08/27 03:30:41;;;;;;;13.40;7.90;;;;;;;;;;5112688;28;20250;-78
2022/08/27 03:33:10;;;;;;;11.03;7.60;;;;;;;;;;5112655;28;20204;-78
2022/08/27 03:35:37;;;;;;;13.37;7.33;;;;;;;;;;5111499;28;20200;-78
2022/08/27 03:38:04;;;;;;;11.57;7.03;;;;;;;;;;5112865;28;20637;-78
2022/08/27 03:40:32;;;;;;;13.03;7.80;;;;;;;;;;5096641;28;20735;-78
2022/08/27 03:43:00;;;;;;;12.70;7.93;;;;;;;;;;5098363;28;20262;-78
2022/08/27 03:45:28;;;;;;;15.03;7.83;;;;;;;;;;5088141;28;20203;-78
2022/08/27 03:47:55;;;;;;;14.33;8.33;;;;;;;;;;5091883;28;20722;-78
2022/08/27 03:50:22;;;;;;;15.03;8.13;;;;;;;;;;5111797;28;20823;-78
2022/08/27 03:52:49;;;;;;;15.97;8.43;;;;;;;;;;5100663;28;20286;-78
2022/08/27 03:55:16;;;;;;;11.10;7.73;;;;;;;;;;5091915;28;20237;-78
2022/08/27 03:57:44;;;;;;;17.37;8.60;;;;;;;;;;5094334;28;20245;-78
2022/08/27 04:00:13;;;;;;;11.60;8.50;;;;;;;;;;5111836;28;20712;-78
2022/08/27 04:02:41;;;;;;;16.53;8.73;;;;;;;;;;5093303;28;20233;-77
2022/08/27 04:05:09;;;;;;;18.27;9.77;;;;;;;;;;5111811;28;20194;-78
2022/08/27 04:07:37;;;;;;;15.33;9.20;;;;;;;;;;5111567;28;20240;-78
2022/08/27 04:10:04;;;;;;;15.57;8.93;;;;;;;;;;5110805;28;20197;-77
2022/08/27 04:12:32;;;;;;;14.87;9.40;;;;;;;;;;5112073;28;20576;-78
2022/08/27 04:14:59;;;;;;;12.87;8.50;;;;;;;;;;5112023;28;20198;-78
2022/08/27 04:17:28;;;;;;;15.30;8.70;;;;;;;;;;5111850;28;20236;-78
2022/08/27 04:19:55;;;;;;;18.50;9.20;;;;;;;;;;5096528;28;20281;-78
2022/08/27 04:22:22;;;;;;;14.97;8.80;;;;;;;;;;5092002;28;20237;-78
2022/08/27 04:24:50;;;;;;;14.20;9.07;;;;;;;;;;5107795;28;20244;-78
2022/08/27 04:27:17;;;;;;;13.07;8.60;;;;;;;;;;5111088;28;20810;-78
2022/08/27 04:29:45;;;;;;;16.03;8.93;;;;;;;;;;5111242;28;20193;-78
2022/08/27 04:32:12;;;;;;;16.13;9.47;;;;;;;;;;5111667;28;21153;-78
2022/08/27 04:34:41;;;;;;;13.70;8.53;;;;;;;;;;5099423;28;20232;-78
2022/08/27 04:37:08;;;;;;;15.93;8.50;;;;;;;;;;5111942;28;20228;-78
2022/08/27 04:39:35;;;;;;;12.90;8.87;;;;;;;;;;5099877;28;20279;-78
2022/08/27 04:42:02;;;;;;;13.17;8.50;;;;;;;;;;5091160;28;20226;-78
2022/08/27 04:44:31;;;;;;;12.77;8.63;;;;;;;;;;5100000;28;20237;-78
2022/08/27 04:46:59;;;;;;;15.57;8.83;;;;;;;;;;5084472;28;20206;-78
2022/08/27 04:49:26;;;;;;;18.10;8.93;;;;;;;;;;5102939;28;20225;-78
2022/08/27 04:51:55;;;;;;;15.07;9.67;;;;;;;;;;5111520;28;20688;-78
2022/08/27 04:54:23;;;;;;;14.47;9.13;;;;;;;;;;5103375;28;20232;-78
2022/08/27 04:56:50;;;;;;;15.33;8.87;;;;;;;;;;5111931;28;20241;-78
2022/08/27 04:59:17;;;;;;;12.33;8.93;;;;;;;;;;5111749;28;20709;-78
2022/08/27 05:01:44;;;;;;;19.73;11.00;;;;;;;;;;5111398;28;20689;-78
2022/08/27 05:04:13;;;;;;;18.23;11.63;;;;;;;;;;5112243;28;20232;-77
2022/08/27 05:06:40;;;;;;;23.13;13.10;;;;;;;;;;5111779;28;20201;-78
2022/08/27 05:09:09;;;;;;;23.07;13.33;;;;;;;;;;5101429;28;20229;-78
2022/08/27 05:11:37;;;;;;;23.03;14.20;;;;;;;;;;5091207;28;20240;-77
2022/08/27 05:14:05;;;;;;;22.90;13.20;;;;;;;;;;5084712;28;20665;-78
2022/08/27 05:16:35;;;;;;;20.13;13.77;;;;;;;;;;5105282;28;20312;-78
2022/08/27 05:19:02;;;;;;;24.97;13.33;;;;;;;;;;5093545;28;20202;-78
2022/08/27 05:21:31;;;;;;;26.73;14.87;;;;;;;;;;5094242;28;20611;-78
2022/08/27 05:23:59;;;;;;;26.63;14.97;;;;;;;;;;5094535;28;20571;-78
2022/08/27 05:26:28;;;;;;;25.33;14.90;;;;;;;;;;5094370;28;20194;-78
2022/08/27 05:28:56;;;;;;;26.20;16.00;;;;;;;;;;5094397;28;20294;-78
2022/08/27 05:31:23;;;;;;;33.90;16.73;;;;;;;;;;5094276;28;20660;-78
2022/08/27 05:33:51;;;;;;;27.93;16.17;;;;;;;;;;5094871;28;20249;-78
2022/08/27 05:36:20;;;;;;;29.37;16.57;;;;;;;;;;5095203;28;20257;-78
2022/08/27 05:38:48;;;;;;;29.70;17.07;;;;;;;;;;5089597;28;20203;-77
2022/08/27 05:41:17;;;;;;;31.73;16.57;;;;;;;;;;5099610;28;20312;-78
2022/08/27 05:43:46;;;;;;;29.90;16.47;;;;;;;;;;5082053;28;20580;-78
2022/08/27 05:46:14;;;;;;;31.87;17.30;;;;;;;;;;5094170;28;20237;-78
2022/08/27 05:48:42;;;;;;;29.77;17.33;;;;;;;;;;5094737;28;20198;-78
2022/08/27 05:51:10;;;;;;;31.90;17.47;;;;;;;;;;5094465;28;20249;-77
2022/08/27 05:53:37;;;;;;;31.20;17.47;;;;;;;;;;5094064;28;20289;-78
2022/08/27 05:56:05;;;;;;;32.03;17.80;;;;;;;;;;5093670;28;20285;-78
2022/08/27 06:01:21;;;;;;;31.07;17.80;;;;;;;;;;5085950;28;20221;-78
2022/08/27 06:03:48;;;;;;;32.67;17.30;;;;;;;;;;5074505;28;20230;-78
2022/08/27 06:06:15;;;;;;;30.50;17.60;;;;;;;;;;5073995;28;20289;-79
2022/08/27 06:08:42;;;;;;;25.23;15.70;;;;;;;;;;5074389;28;20249;-78
2022/08/27 06:11:10;;;;;;;24.83;15.13;;;;;;;;;;5113615;28;20218;-78
2022/08/27 06:13:38;;;;;;;24.93;14.70;;;;;;;;;;5110570;28;20205;-78
2022/08/27 06:16:06;;;;;;;24.47;14.80;;;;;;;;;;5104749;28;20626;-78
2022/08/27 06:18:35;;;;;;;19.50;13.83;;;;;;;;;;5086067;28;20230;-78
2022/08/27 06:21:02;;;;;;;21.20;13.63;;;;;;;;;;5080983;28;20223;-78
2022/08/27 06:23:29;;;;;;;19.37;12.97;;;;;;;;;;5095263;28;20725;-78
2022/08/27 06:25:57;;;;;;;20.43;12.93;;;;;;;;;;5100569;28;20230;-78
2022/08/27 06:28:26;;;;;;;18.57;12.33;;;;;;;;;;5092546;28;20230;-78
2022/08/27 06:30:53;;;;;;;18.47;12.83;;;;;;;;;;5093290;28;20719;-78
2022/08/27 06:33:20;;;;;;;19.77;12.93;;;;;;;;;;5093325;28;20776;-78
2022/08/27 06:35:49;;;;;;;22.33;13.20;;;;;;;;;;5093828;28;20251;-78
2022/08/27 06:38:16;;;;;;;22.90;14.37;;;;;;;;;;5093481;28;20241;-78
2022/08/27 06:40:43;;;;;;;23.03;14.63;;;;;;;;;;5093239;28;20729;-78
2022/08/27 06:43:10;;;;;;;21.70;14.47;;;;;;;;;;5093577;28;20325;-78
2022/08/27 06:45:38;;;;;;;23.07;15.67;;;;;;;;;;5098472;28;20297;-78
2022/08/27 06:48:06;;;;;;;20.63;13.90;;;;;;;;;;5103719;28;20225;-78
2022/08/27 06:50:37;;;;;;;22.17;15.83;;;;;;;;;;5113170;28;20237;-78
2022/08/27 06:53:06;;;;;;;23.10;15.63;;;;;;;;;;5113855;28;20237;-79
2022/08/27 06:55:33;;;;;;;23.65;16.27;;;;;;;;;;5101472;28;20199;-78
2022/08/27 06:58:00;;;;;;;20.55;15.50;;;;;;;;;;5111654;28;20257;-74
2022/08/27 07:00:27;;;;;;;23.50;15.73;;;;;;;;;;5112511;28;20321;-75
2022/08/27 07:02:55;;;;;;;20.65;15.02;;;;;;;;;;5109953;28;20740;-75
2022/08/27 07:05:22;;;;;;;22.52;16.02;;;;;;;;;;5092194;28;20211;-74
2022/08/27 07:07:49;;;;;;;21.52;15.93;;;;;;;;;;5091699;28;20285;-75
2022/08/27 07:10:18;;;;;;;20.55;15.93;;;;;;;;;;5093533;28;20285;-75
2022/08/27 07:12:45;;;;;;;22.63;16.27;;;;;;;;;;5091475;28;20626;-75
2022/08/27 07:15:13;;;;;;;20.90;15.40;;;;;;;;;;5111690;28;20206;-76
2022/08/27 07:17:40;;;;;;;22.40;16.35;;;;;;;;;;5112293;28;20248;-75
2022/08/27 07:20:08;;;;;;;21.58;15.57;;;;;;;;;;5112268;28;20293;-75
2022/08/27 07:22:35;;;;;;;20.58;15.57;;;;;;;;;;5112485;28;20201;-75
2022/08/27 07:25:02;;;;;;;19.48;15.38;;;;;;;;;;5111917;28;20236;-75
2022/08/27 07:27:31;;;;;;;19.00;15.73;;;;;;;;;;5104762;28;20247;-75
2022/08/27 07:29:59;;;;;;;20.02;15.68;;;;;;;;;;5091609;28;20285;-76
2022/08/27 07:32:26;;;;;;;19.08;15.70;;;;;;;;;;5094165;28;20341;-75
2022/08/27 07:34:53;;;;;;;20.42;15.93;;;;;;;;;;5106240;28;20285;-75
2022/08/27 07:37:21;;;;;;;21.10;15.90;;;;;;;;;;5111894;28;20930;-76
2022/08/27 07:39:48;;;;;;;17.85;14.55;;;;;;;;;;5111180;28;20715;-76
2022/08/27 07:45:01;;;;;;;18.45;14.85;;;;;;;;;;5103001;28;20216;-76
2022/08/27 07:47:28;;;;;;;18.20;15.27;;;;;;;;;;5091589;28;20289;-76
2022/08/27 07:49:56;;;;;;;20.23;15.02;;;;;;;;;;5091609;28;20205;-76
2022/08/27 07:52:23;;;;;;;19.55;15.45;;;;;;;;;;5091479;28;20258;-75
2022/08/27 07:54:50;;;;;;;19.00;15.50;;;;;;;;;;5091166;28;20199;-76
2022/08/27 07:57:17;;;;;;;16.92;14.40;;;;;;;;;;5091420;28;20787;-76
2022/08/27 07:59:45;;;;;;;16.77;14.90;;;;;;;;;;5111965;28;20225;-75
2022/08/27 08:02:14;;;;;;;18.75;15.20;;;;;;;;;;5094388;28;20234;-74
2022/08/27 08:04:41;;;;;;;16.10;13.70;;;;;;;;;;5096930;28;20197;-74
2022/08/27 08:07:08;;;;;;;17.40;14.50;;;;;;;;;;5102649;28;20286;-75
2022/08/27 08:09:35;;;;;;;16.27;14.05;;;;;;;;;;5109886;28;20236;-74
2022/08/27 08:12:03;;;;;;;16.50;14.32;;;;;;;;;;5097434;28;20301;-74
2022/08/27 08:14:30;;;;;;;15.50;13.80;;;;;;;;;;5094972;28;20946;-75
2022/08/27 08:17:00;;;;;;;18.08;13.80;;;;;;;;;;5089571;28;20887;-74
2022/08/27 08:19:28;;;;;;;17.52;13.13;;;;;;;;;;5088253;28;20210;-75
2022/08/27 08:21:56;;;;;;;14.40;12.30;;;;;;;;;;5088526;28;20199;-74
2022/08/27 08:24:23;;;;;;;13.50;12.00;;;;;;;;;;5089109;28;20360;-76
2022/08/27 08:26:51;;;;;;;19.05;13.50;;;;;;;;;;5083636;28;20230;-75
2022/08/27 08:29:18;;;;;;;14.60;12.55;;;;;;;;;;5087528;28;20281;-75
2022/08/27 08:31:46;;;;;;;17.55;13.18;;;;;;;;;;5087754;28;20222;-75
2022/08/27 08:34:14;;;;;;;15.10;12.73;;;;;;;;;;5086356;28;20199;-75
2022/08/27 08:36:43;;;;;;;14.50;12.32;;;;;;;;;;5088669;28;20300;-74
2022/08/27 08:39:10;;;;;;;14.90;12.93;;;;;;;;;;5093062;28;20525;-75
2022/08/27 08:41:40;;;;;;;13.23;11.63;;;;;;;;;;5088317;28;20238;-74
2022/08/27 08:44:10;;;;;;;14.13;12.60;;;;;;;;;;5100110;28;20733;-74
2022/08/27 08:46:39;;;;;;;15.88;13.18;;;;;;;;;;5097760;28;20219;-74
2022/08/27 08:49:10;;;;;;;13.38;11.15;;;;;;;;;;5075192;28;20297;-75
2022/08/27 08:51:40;;;;;;;12.93;11.18;;;;;;;;;;5096673;28;20309;-77
2022/08/27 08:54:09;;;;;;;14.30;12.68;;;;;;;;;;5093465;28;20432;-76
2022/08/27 08:56:41;;;;;;;12.95;11.45;;;;;;;;;;5093809;28;21006;-77
2022/08/27 08:59:12;;;;;;;13.88;12.02;;;;;;;;;;5092520;28;20310;-78
2022/08/27 09:01:40;;;;;;;13.38;10.80;;;;;;;;;;5085887;28;20919;-76
2022/08/27 09:04:09;;;;;;;13.05;11.50;;;;;;;;;;5089569;28;20317;-76
2022/08/27 09:06:40;;;;;;;15.30;13.63;;;;;;;;;;5089666;28;20684;-75
2022/08/27 09:09:18;;;;;;;13.75;12.32;;;;;;;;;;5090623;28;20209;-76
2022/08/27 09:11:51;;;;;;;14.52;12.45;;;;;;;;;;5090952;28;20237;-76
2022/08/27 09:14:22;;;;;;;14.00;11.25;;;;;;;;;;5085845;28;20210;-75
2022/08/27 09:16:49;;;;;;;13.25;11.73;;;;;;;;;;5092807;28;20241;-75
2022/08/27 09:19:16;;;;;;;11.52;10.32;;;;;;;;;;5097504;28;20226;-75
2022/08/27 09:21:49;;;;;;;12.48;10.30;;;;;;;;;;5081858;28;20237;-76
2022/08/27 09:24:21;;;;;;;13.07;9.68;;;;;;;;;;5084913;28;20198;-76
2022/08/27 09:26:49;;;;;;;13.70;11.75;;;;;;;;;;5090044;28;20259;-76
2022/08/27 09:29:18;;;;;;;8.52;7.60;;;;;;;;;;5092961;28;20259;-75
2022/08/27 09:31:47;;;;;;;11.32;8.85;;;;;;;;;;5093181;28;20246;-75
2022/08/27 09:34:15;;;;;;;9.60;8.55;;;;;;;;;;5088981;28;20203;-74
2022/08/27 09:36:53;;;;;;;8.93;8.02;;;;;;;;;;5092885;28;20255;-79
2022/08/27 09:39:26;;;;;;;9.60;8.63;;;;;;;;;;5091076;28;20281;-79
2022/08/27 09:41:53;;;;;;;9.07;7.60;;;;;;;;;;5093500;28;20218;-79
2022/08/27 09:44:21;;;;;;;9.10;7.07;;;;;;;;;;5093846;28;20206;-79
2022/08/27 09:46:52;;;;;;;9.00;6.50;;;;;;;;;;5088445;28;20211;-79
2022/08/27 09:49:20;;;;;;;9.80;7.25;;;;;;;;;;5085110;28;20201;-79
2022/08/27 09:51:48;;;;;;;7.80;6.05;;;;;;;;;;5092973;28;20288;-79
2022/08/27 09:54:28;;;;;;;8.05;6.78;;;;;;;;;;5093427;28;20226;-79
2022/08/27 09:56:57;;;;;;;7.20;4.75;;;;;;;;;;5093851;28;20612;-79
2022/08/27 09:59:26;;;;;;;5.55;4.88;;;;;;;;;;5093990;28;20720;-79
2022/08/27 10:01:55;;;;;;;7.72;5.80;;;;;;;;;;5103530;28;20946;-79
2022/08/27 10:04:25;;;;;;;7.95;5.43;;;;;;;;;;5104909;28;20198;-79
2022/08/27 10:06:52;;;;;;;6.68;5.95;;;;;;;;;;5110046;28;20198;-79
2022/08/27 10:09:22;;;;;;;6.25;5.65;;;;;;;;;;5091565;28;20285;-79
2022/08/27 10:11:53;;;;;;;6.72;5.68;;;;;;;;;;5100571;28;20249;-79
2022/08/27 10:14:24;;;;;;;8.15;5.18;;;;;;;;;;5096791;28;20240;-79
2022/08/27 10:16:57;;;;;;;5.88;4.80;;;;;;;;;;5084668;28;20205;-79
2022/08/27 10:19:33;;;;;;;8.07;5.53;;;;;;;;;;5092929;28;20206;-79
2022/08/27 10:22:05;;;;;;;8.70;5.63;;;;;;;;;;5093010;28;20198;-79
2022/08/27 10:24:36;;;;;;;7.57;5.43;;;;;;;;;;5093022;28;20290;-79
2022/08/27 10:27:08;;;;;;;6.30;5.00;;;;;;;;;;5092691;28;20293;-79
2022/08/27 10:29:39;;;;;;;6.57;4.55;;;;;;;;;;5091172;28;20246;-79
2022/08/27 10:32:12;;;;;;;7.50;4.55;;;;;;;;;;5096503;28;20279;-79
2022/08/27 10:34:42;;;;;;;7.60;5.07;;;;;;;;;;5092568;28;20282;-79
2022/08/27 10:37:13;;;;;;;6.47;4.82;;;;;;;;;;5094088;28;20237;-80
2022/08/27 10:39:47;;;;;;;6.13;5.53;;;;;;;;;;5084001;28;20629;-79
2022/08/27 10:42:20;;;;;;;5.78;4.18;;;;;;;;;;5091090;28;20222;-79
2022/08/27 10:44:55;;;;;;;4.57;3.70;;;;;;;;;;5098231;28;20201;-79
2022/08/27 10:47:27;;;;;;;4.20;3.42;;;;;;;;;;5093567;28;20201;-79
2022/08/27 10:49:58;;;;;;;5.75;4.00;;;;;;;;;;5100135;28;20292;-79
2022/08/27 10:52:27;;;;;;;4.78;4.20;;;;;;;;;;5094795;28;20218;-79
2022/08/27 10:54:57;;;;;;;5.53;4.68;;;;;;;;;;5092128;28;20234;-79
2022/08/27 10:57:37;;;;;;;4.93;4.07;;;;;;;;;;5092361;28;20872;-79
2022/08/27 11:00:09;;;;;;;5.70;4.70;;;;;;;;;;5089355;28;20230;-79
2022/08/27 11:02:38;;;;;;;5.57;4.60;;;;;;;;;;5106101;28;20193;-79
2022/08/27 11:05:10;;;;;;;6.25;3.88;;;;;;;;;;5079681;28;20204;-79
2022/08/27 11:07:39;;;;;;;7.82;4.75;;;;;;;;;;5103717;28;20272;-79
2022/08/27 11:10:08;;;;;;;4.82;3.80;;;;;;;;;;5103317;28;20194;-79
2022/08/27 11:12:38;;;;;;;5.65;4.00;;;;;;;;;;5099514;28;20230;-79
2022/08/27 11:15:08;;;;;;;7.60;4.00;;;;;;;;;;5092615;28;20201;-79
2022/08/27 11:17:38;;;;;;;5.20;4.07;;;;;;;;;;5088794;28;20310;-79
2022/08/27 11:20:08;;;;;;;4.13;3.70;;;;;;;;;;5097833;28;20252;-79
2022/08/27 11:22:37;;;;;;;4.45;3.42;;;;;;;;;;5095660;28;20217;-79
2022/08/27 11:25:09;;;;;;;3.72;3.22;;;;;;;;;;5092805;28;20577;-79
2022/08/27 11:27:40;;;;;;;5.57;3.58;;;;;;;;;;5103402;28;20205;-79
2022/08/27 11:30:08;;;;;;;5.10;3.00;;;;;;;;;;5096119;28;20591;-78
2022/08/27 11:32:41;;;;;;;7.22;3.45;;;;;;;;;;5087728;28;20917;-78
2022/08/27 11:35:15;;;;;;;4.43;3.47;;;;;;;;;;5092019;28;20298;-78
2022/08/27 11:37:48;;;;;;;4.88;3.20;;;;;;;;;;5096261;28;20282;-79
2022/08/27 11:40:36;;;;;;;3.08;2.72;;;;;;;;;;5086390;28;20226;-78
2022/08/27 11:43:06;;;;;;;2.83;2.42;;;;;;;;;;5099584;28;20200;-78
2022/08/27 11:45:37;;;;;;;3.40;2.33;;;;;;;;;;5112498;28;20286;-78
2022/08/27 11:48:16;;;;;;;4.80;2.47;;;;;;;;;;5107822;28;20201;-78
2022/08/27 11:50:53;;;;;;;4.88;2.90;;;;;;;;;;5084636;28;20294;-79
2022/08/27 11:53:24;;;;;;;3.45;2.30;;;;;;;;;;5091548;28;20194;-78
2022/08/27 11:55:52;;;;;;;3.53;2.58;;;;;;;;;;5098880;28;20229;-79
2022/08/27 11:58:26;;;;;;;3.50;1.98;;;;;;;;;;5098467;28;20218;-79
2022/08/27 12:00:53;;;;;;;3.35;2.00;;;;;;;;;;5093662;28;20230;-79
2022/08/27 12:03:25;;;;;;;2.85;2.20;;;;;;;;;;5091758;28;20261;-79
2022/08/27 12:06:08;;;;;;;4.80;2.28;;;;;;;;;;5092007;28;20281;-79
2022/08/27 12:08:36;;;;;;;5.13;2.17;;;;;;;;;;5100025;28;20612;-79
2022/08/27 12:11:09;;;;;;;3.13;2.15;;;;;;;;;;5102833;28;20284;-79
2022/08/27 12:13:42;;;;;;;2.63;2.08;;;;;;;;;;5076309;28;20234;-79
2022/08/27 12:16:15;;;;;;;2.30;1.80;;;;;;;;;;5073659;28;20294;-79
2022/08/27 12:18:50;;;;;;;2.90;1.63;;;;;;;;;;5109199;28;20202;-79
2022/08/27 12:21:22;;;;;;;2.45;1.75;;;;;;;;;;5110046;28;20197;-79
2022/08/27 12:23:56;;;;;;;2.80;1.80;;;;;;;;;;5111870;28;20221;-79
2022/08/27 12:26:30;;;;;;;2.42;1.70;;;;;;;;;;5101356;28;20971;-79
2022/08/27 12:29:13;;;;;;;2.70;1.63;;;;;;;;;;5100336;28;20228;-79
2022/08/27 12:31:42;;;;;;;2.58;1.77;;;;;;;;;;5081449;28;20202;-79
2022/08/27 12:34:14;;;;;;;4.03;2.20;;;;;;;;;;5095654;28;20669;-79
2022/08/27 12:36:41;;;;;;;2.10;1.88;;;;;;;;;;5095564;28;20726;-79
2022/08/27 12:39:12;;;;;;;4.82;2.20;;;;;;;;;;5095464;28;20281;-79
2022/08/27 12:41:45;;;;;;;3.35;2.10;;;;;;;;;;5099023;28;20664;-79
2022/08/27 12:44:13;;;;;;;2.78;1.90;;;;;;;;;;5095252;28;20661;-79
2022/08/27 12:46:46;;;;;;;2.08;1.88;;;;;;;;;;5096014;28;20690;-79
2022/08/27 12:49:15;;;;;;;3.75;2.00;;;;;;;;;;5102582;28;20728;-79
2022/08/27 12:51:45;;;;;;;5.90;2.97;;;;;;;;;;5095527;28;20290;-78
2022/08/27 12:54:20;;;;;;;4.30;1.95;;;;;;;;;;5095269;28;20186;-78
2022/08/27 12:56:54;;;;;;;4.03;2.10;;;;;;;;;;5094324;28;20221;-81
2022/08/27 12:59:38;;;;;;;2.33;2.00;;;;;;;;;;5096247;28;20242;-81
2022/08/27 13:02:13;;;;;;;4.18;2.50;;;;;;;;;;5095101;28;20198;-80
2022/08/27 13:04:42;;;;;;;4.78;2.78;;;;;;;;;;5095069;28;20260;-82
2022/08/27 13:07:09;;;;;;;2.95;1.77;;;;;;;;;;5094828;28;20194;-80
2022/08/27 13:09:38;;;;;;;2.60;1.90;;;;;;;;;;5094626;28;20197;-79
2022/08/27 13:12:07;;;;;;;3.97;1.88;;;;;;;;;;5087219;28;20289;-79
2022/08/27 13:14:36;;;;;;;3.00;2.47;;;;;;;;;;5094589;28;20230;-80
2022/08/27 13:17:05;;;;;;;2.67;2.05;;;;;;;;;;5094646;28;20233;-79
2022/08/27 13:19:35;;;;;;;3.70;2.42;;;;;;;;;;5094450;28;20194;-79
2022/08/27 13:22:03;;;;;;;2.45;2.10;;;;;;;;;;5094543;28;20233;-79
2022/08/27 13:24:32;;;;;;;2.60;2.22;;;;;;;;;;5093688;28;20214;-80
2022/08/27 13:26:59;;;;;;;3.15;2.47;;;;;;;;;;5101222;28;20293;-79
2022/08/27 13:29:27;;;;;;;2.83;2.53;;;;;;;;;;5104006;28;20766;-79
2022/08/27 13:31:54;;;;;;;3.15;2.85;;;;;;;;;;5094059;28;20286;-79
2022/08/27 13:34:23;;;;;;;3.22;2.10;;;;;;;;;;5112777;28;20285;-79
2022/08/27 13:36:54;;;;;;;6.00;2.67;;;;;;;;;;5113519;28;20198;-79
2022/08/27 13:39:21;;;;;;;2.58;2.08;;;;;;;;;;5112711;28;20236;-79
2022/08/27 13:41:49;;;;;;;2.13;1.92;;;;;;;;;;5098057;27;20244;-78
2022/08/27 13:44:21;;;;;;;2.40;2.20;;;;;;;;;;5100329;28;20308;-79
2022/08/27 13:46:49;;;;;;;3.78;2.10;;;;;;;;;;5098686;28;20197;-79
2022/08/27 13:49:20;;;;;;;2.30;1.92;;;;;;;;;;5102564;28;20700;-79
2022/08/27 13:51:48;;;;;;;4.03;1.80;;;;;;;;;;5101072;28;20198;-80
2022/08/27 13:54:18;;;;;;;2.40;1.92;;;;;;;;;;5098983;28;20194;-78
2022/08/27 13:57:02;;;;;;;2.72;1.90;;;;;;;;;;5105989;28;20209;-80
2022/08/27 13:59:30;;;;;;;2.10;1.83;;;;;;;;;;5097960;27;20214;-78
2022/08/27 14:01:58;;;;;;;2.50;2.15;;;;;;;;;;5111844;28;20190;-79
2022/08/27 14:04:26;;;;;;;3.95;2.03;;;;;;;;;;5107387;28;20253;-79
2022/08/27 14:06:54;;;;;;;2.13;1.70;;;;;;;;;;5095310;28;20868;-79
2022/08/27 14:09:25;;;;;;;4.22;2.00;;;;;;;;;;5105631;28;20198;-79
2022/08/27 14:11:59;;;;;;;2.42;1.73;;;;;;;;;;5113165;28;20232;-79
2022/08/27 14:14:26;;;;;;;5.15;2.10;;;;;;;;;;5092660;28;20271;-79
2022/08/27 14:16:57;;;;;;;2.55;1.90;;;;;;;;;;5092173;28;20299;-79
2022/08/27 14:19:26;;;;;;;2.20;1.70;;;;;;;;;;5092623;28;20253;-80
2022/08/27 14:21:53;;;;;;;2.00;1.70;;;;;;;;;;5092080;28;20237;-79
2022/08/27 14:24:21;;;;;;;2.50;1.60;;;;;;;;;;5092428;28;20306;-79
2022/08/27 14:26:50;;;;;;;2.55;1.73;;;;;;;;;;5102396;28;20237;-79
2022/08/27 14:29:18;;;;;;;3.15;2.00;;;;;;;;;;5099488;28;20234;-79
2022/08/27 14:31:45;;;;;;;4.05;1.90;;;;;;;;;;5092685;28;20721;-79
2022/08/27 14:34:13;;;;;;;3.25;1.92;;;;;;;;;;5082831;28;20229;-79
2022/08/27 14:36:41;;;;;;;2.53;1.70;;;;;;;;;;5097413;28;20213;-79
2022/08/27 14:39:08;;;;;;;2.58;1.80;;;;;;;;;;5092520;28;20226;-79
2022/08/27 14:41:36;;;;;;;2.67;1.75;;;;;;;;;;5092852;28;20824;-79
2022/08/27 14:44:05;;;;;;;2.53;1.77;;;;;;;;;;5100277;28;20218;-79
2022/08/27 14:46:35;;;;;;;1.58;1.48;;;;;;;;;;5092425;28;20202;-79
2022/08/27 14:49:06;;;;;;;2.63;1.80;;;;;;;;;;5112773;28;20201;-79